Flight Track Log - Related Links

Times and Time Zones

All times are in EDT time to prevent confusion due to time zone crossing. See the N10933 flight status page for this flight to view local times or setup timezone preferences in your user account.

Time Position Orientation Groundspeed Altitude Reporting Facility
EDT Latitude Longitude Course Direction KTS MPH feet Rate Location/Type
Sat 11:14:58 AM 44.5894 -75.1744 263° West 175 201 5,900  Level Boston Center
Sat 11:15:59 AM 44.5558 -75.1875 195° South 134 154 6,800 885 Climbing Boston Center
Sat 11:17:00 AM 44.6355 -75.3080 263° West  Level FlightAware Approximate
Sat 11:17:00 AM 44.5219 -75.2092 205° Southwest 134 154 7,700  Level Boston Center
Sat 11:17:58 AM 44.4842 -75.2133 184° South 139 160 8,600 966 Climbing Boston Center
Sat 11:18:58 AM 44.4444 -75.2172 184° South 144 166 9,600 893 Climbing Boston Center
Sat 11:19:59 AM 44.4069 -75.2211 184° South 144 166 10,400 793 Climbing Boston Center
Sat 11:20:59 AM 44.3672 -75.2281 187° South 144 166 11,200 756 Climbing Boston Center
Sat 11:21:58 AM 44.3294 -75.2350 187° South 144 166 11,900 694 Climbing Boston Center
Sat 11:23:00 AM 44.2917 -75.2478 194° South 144 166 12,600 700 Climbing Boston Center
Sat 11:23:58 AM 44.2600 -75.2694 206° Southwest 144 166 13,300 756 Climbing Boston Center
Sat 11:24:59 AM 44.2239 -75.2881 200° South 144 166 14,100 738 Climbing Boston Center
Sat 11:26:00 AM 44.1881 -75.3036 197° South 144 166 14,800 706 Climbing Boston Center
Sat 11:26:58 AM 44.1544 -75.3164 195° South 139 160 15,500 650 Climbing Boston Center
Sat 11:28:00 AM 44.1167 -75.3292 194° South 190 219 16,100 250 Climbing Boston Center
Sat 11:28:58 AM 44.0767 -75.3417 193° South 170 196 16,000 -50 Descending Boston Center
Sat 11:30:00 AM 44.0367 -75.3569 195° South 164 189 16,000  Level Boston Center
Sat 11:31:01 AM 43.9925 -75.3722 194° South 164 189 16,000  Level Boston Center
Sat 11:31:58 AM 43.9522 -75.3992 206° Southwest 164 189 16,000  Level Boston Center
Sat 11:32:58 AM 43.9142 -75.4261 207° Southwest 164 189 16,000  Level Boston Center
Sat 11:33:59 AM 43.8844 -75.4475 207° Southwest 164 189 16,000  Level Boston Center
Sat 11:35:00 AM 43.8378 -75.4797 206° Southwest 159 183 16,000 50 Level Boston Center
Sat 11:35:58 AM 43.7994 -75.5067 207° Southwest 159 183 16,100  Climbing Boston Center
Sat 11:36:58 AM 43.7592 -75.5361 208° Southwest 159 183 16,000 -50 Descending Boston Center
Sat 11:37:59 AM 43.7186 -75.5628 205° Southwest 159 183 16,000 50 Level Boston Center
Sat 11:38:58 AM 43.6803 -75.5925 209° Southwest 164 189 16,100  Climbing Boston Center
Sat 11:39:58 AM 43.6400 -75.6219 208° Southwest 164 189 16,000 -50 Descending Boston Center
Sat 11:40:59 AM 43.5994 -75.6514 208° Southwest 164 189 16,000  Level Boston Center
Sat 11:41:59 AM 43.5611 -75.6808 209° Southwest 164 189 16,000 50 Level Boston Center
Sat 11:42:59 AM 43.5208 -75.7103 208° Southwest 164 189 16,100  Climbing Boston Center
Sat 11:44:12 AM 43.4717 -75.7447 207° Southwest 164 189 16,000  Descending Boston Center
Sat 11:45:10 AM 43.4333 -75.7742 209° Southwest 164 189 16,100  Climbing Boston Center
Sat 11:46:11 AM 43.3950 -75.8064 211° Southwest 164 189 16,000 -49 Descending Boston Center
Sat 11:47:12 AM 43.3586 -75.8386 213° Southwest 164 189 16,000  Level Boston Center
Sat 11:48:12 AM 43.3161 -75.8619 202° Southwest 164 189 16,000  Level Boston Center
Sat 11:49:11 AM 43.2739 -75.8853 202° Southwest 164 189 16,000 -50 Level Boston Center
Sat 11:50:11 AM 43.2314 -75.9086 202° Southwest 164 189 15,900 -50 Descending Boston Center
Sat 11:51:12 AM 43.1889 -75.9317 202° Southwest 169 194 15,900  Level Boston Center
Sat 11:52:10 AM 43.1464 -75.9606 206° Southwest 169 194 15,900  Level Boston Center
Sat 11:53:11 AM 43.1039 -75.9867 204° Southwest 169 194 15,900  Level Boston Center
Sat 11:55:21 AM 43.0136 -76.0400 203° Southwest 172 198 15,900  Level New York Center
Sat 11:56:22 AM 42.9728 -76.0650 204° Southwest 166 191 15,900  Level New York Center
Sat 11:57:22 AM 42.9322 -76.0900 204° Southwest 166 191 15,900 49 Level New York Center
Sat 11:58:24 AM 42.8875 -76.1147 202° Southwest 166 191 16,000  Climbing New York Center
Sat 11:59:22 AM 42.8447 -76.1394 203° Southwest 166 191 15,900  Descending New York Center
Sat 12:00:22 PM 42.8000 -76.1611 200° South 166 191 16,000 50 Climbing New York Center
Sat 12:01:23 PM 42.7575 -76.1831 201° Southwest 171 197 16,000 -50 Level New York Center
Sat 12:02:23 PM 42.7150 -76.2019 198° South 171 197 15,900 -50 Descending New York Center
Sat 12:03:23 PM 42.6703 -76.2264 202° Southwest 176 203 15,900  Level New York Center
Sat 12:04:23 PM 42.6275 -76.2481 200° South 176 203 15,900  Level New York Center
Sat 12:05:21 PM 42.5808 -76.2697 199° South 176 203 15,900 50 Level New York Center
Sat 12:06:22 PM 42.5403 -76.2914 201° Southwest 171 197 16,000 49 Climbing New York Center
Sat 12:07:23 PM 42.4978 -76.3133 201° Southwest 171 197 16,000  Level New York Center
Sat 12:08:24 PM 42.4528 -76.3375 202° Southwest 171 197 16,000 -50 Level New York Center
Sat 12:09:24 PM 42.4103 -76.3592 201° Southwest 171 197 15,900 -51 Descending New York Center
Sat 12:10:22 PM 42.3653 -76.3861 204° Southwest 171 197 15,900  Level New York Center
Sat 12:11:22 PM 42.3225 -76.4078 201° Southwest 171 197 15,900  Level New York Center
Sat 12:12:21 PM 42.2758 -76.4289 199° South 171 197 15,900 50 Level New York Center
Sat 12:13:22 PM 42.2331 -76.4533 203° Southwest 171 197 16,000  Climbing New York Center
Sat 12:14:24 PM 42.1903 -76.4775 203° Southwest 171 197 15,900 -50 Descending New York Center
Sat 12:15:22 PM 42.1494 -76.4992 201° Southwest 171 197 15,900 51 Level New York Center
Sat 12:16:22 PM 42.1047 -76.5233 202° Southwest 171 197 16,000 -197 Climbing New York Center
Sat 12:17:24 PM 42.0597 -76.5475 202° Southwest 171 197 15,500 -443 Descending New York Center
Sat 12:18:24 PM 42.0128 -76.5711 200° South 171 197 15,100 -353 Descending New York Center
Sat 12:19:23 PM 41.9661 -76.5922 199° South 176 203 14,800 -303 Descending New York Center
Sat 12:20:23 PM 41.9192 -76.6161 201° Southwest 176 203 14,500 -353 Descending New York Center
Sat 12:21:22 PM 41.8719 -76.6397 200° South 176 203 14,100 -252 Descending New York Center
Sat 12:22:22 PM 41.8250 -76.6633 201° Southwest 176 203 14,000 -50 Descending New York Center
Sat 12:23:23 PM 41.7825 -76.6847 201° Southwest 176 203 14,000 50 Level New York Center
Sat 12:24:23 PM 41.7244 -76.6767 174° South 188 216 14,100 50 Climbing New York Center
Sat 12:25:22 PM 41.6728 -76.6667 172° South 193 222 14,100  Level New York Center
Sat 12:26:22 PM 41.6236 -76.6539 169° South 198 228 14,100  Level New York Center
Sat 12:27:23 PM 41.5761 -76.6442 171° South 198 228 14,100  Level New York Center
Sat 12:28:23 PM 41.5244 -76.6342 172° South 193 222 14,100  Level New York Center
Sat 12:29:24 PM 41.4719 -76.6433 187° South 186 214 14,100  Level New York Center
Sat 12:30:24 PM 41.4256 -76.6531 189° South 181 208 14,100  Level New York Center
Sat 12:31:23 PM 41.3775 -76.6572 184° South 181 208 14,100  Level New York Center
Sat 12:32:24 PM 41.3375 -76.6675 191° South 181 208 14,100  Level New York Center
Sat 12:33:24 PM 41.2886 -76.6881 198° South 175 201 14,100  Level New York Center
Sat 12:34:21 PM 41.2461 -76.7039 196° South 169 194 14,100  Level New York Center
Sat 12:35:23 PM 41.1994 -76.7217 196° South 169 194 14,100  Level New York Center
Sat 12:36:23 PM 41.1592 -76.7347 194° South 169 194 14,100  Level New York Center
Sat 12:37:24 PM 41.1144 -76.7528 197° South 169 194 14,100  Level New York Center
Sat 12:38:22 PM 41.0722 -76.7656 193° South 169 194 14,100  Level New York Center
Sat 12:39:23 PM 41.0275 -76.7836 197° South 169 194 14,100  Level New York Center
Sat 12:40:23 PM 40.9872 -76.7967 194° South 169 194 14,100  Level New York Center
Sat 12:41:22 PM 40.9447 -76.8122 195° South 169 194 14,100  Level New York Center
Sat 12:42:23 PM 40.9022 -76.8275 195° South 163 188 14,100  Level New York Center
Sat 12:43:23 PM 40.8619 -76.8406 194° South 163 188 14,100  Level New York Center
Sat 12:44:21 PM 40.8194 -76.8558 195° South 163 188 14,100  Level New York Center
Sat 12:45:22 PM 40.7833 -76.8692 196° South 163 188 14,100 -50 Level New York Center
Sat 12:46:22 PM 40.7347 -76.8839 193° South 163 188 14,000 -50 Descending New York Center
Sat 12:47:23 PM 40.6986 -76.8972 196° South 163 188 14,000  Level New York Center
Sat 12:48:23 PM 40.6539 -76.9150 197° South 163 188 14,000  Level New York Center
Sat 12:49:24 PM 40.6158 -76.9281 195° South 163 188 14,000  Level New York Center
Sat 12:50:22 PM 40.5692 -76.9431 194° South 163 188 14,000  Level New York Center
Sat 12:51:23 PM 40.5311 -76.9533 192° South 163 188 14,000  Level New York Center
Sat 12:52:21 PM 40.4864 -76.9711 197° South 163 188 14,000  Level New York Center
Sat 12:53:22 PM 40.4481 -76.9842 195° South 163 188 14,000  Level New York Center
Sat 12:54:23 PM 40.4014 -76.9989 194° South 163 188 14,000  Level New York Center
Sat 12:55:23 PM 40.3633 -77.0119 195° South 163 188 14,000  Level New York Center
Sat 12:56:24 PM 40.3186 -77.0297 197° South 157 181 14,000 -2,521 Level New York Center
Sat 12:57:22 PM 40.2783 -77.0422 193° South 162 186 9,000 -610 Descending New York Center
Sat 12:58:22 PM 40.2253 -77.0592 194° South 174 200 12,800 1,636 Climbing New York Center
Sat 12:59:23 PM 40.1828 -77.0717 193° South 174 200 12,300 -639 Descending New York Center
Sat 01:00:24 PM 40.1278 -77.0883 193° South 184 212 11,500 -861 Descending New York Center
Sat 01:02:52 PM 40.0000 -77.1333 195° South 193 222 9,300 -721 Descending Potomac TRACON
Sat 01:03:52 PM 39.9500 -77.1500 194° South 186 214 9,000 -150 Descending Potomac TRACON
Sat 01:04:52 PM 39.9000 -77.1667 194° South 175 201 9,000  Level Potomac TRACON
Sat 01:05:52 PM 39.8500 -77.1667 180° South 175 201 9,000 -157 Level Potomac TRACON
Sat 01:06:47 PM 39.8000 -77.1833 194° South 178 205 8,700 -470 Descending Potomac TRACON
Sat 01:07:47 PM 39.7500 -77.2000 194° South 183 211 8,100 -350 Descending Potomac TRACON
Sat 01:08:47 PM 39.7167 -77.2167 201° Southwest 162 186 8,000 -300 Descending Potomac TRACON
Sat 01:09:47 PM 39.6667 -77.2333 194° South 163 188 7,500 -474 Descending Potomac TRACON
Sat 01:10:41 PM 39.6333 -77.2500 201° Southwest 170 196 7,100 -211 Descending Potomac TRACON
Sat 01:11:41 PM 39.6167 -77.2833 237° Southwest 141 162 7,100 -105 Level Potomac TRACON
Sat 01:12:35 PM 39.6167 -77.3333 270° West 141 162 6,900 -316 Descending Potomac TRACON
Sat 01:13:35 PM 39.6000 -77.3833 247° West 143 165 6,500 -450 Descending Potomac TRACON
Sat 01:14:35 PM 39.5833 -77.4333 247° West 160 184 6,000 -250 Descending Potomac TRACON
Sat 01:15:35 PM 39.5500 -77.4667 218° Southwest 149 171 6,000  Level Potomac TRACON
Sat 01:16:36 PM 39.5167 -77.4833 201° Southwest 152 175 6,000  Level Potomac TRACON
Sat 01:17:36 PM 39.4667 -77.5000 194° South 150 173 6,000 -500 Level Potomac TRACON
Sat 01:18:36 PM 39.4333 -77.4667 142° Southeast 193 222 5,000 -500 Descending Potomac TRACON
Sat 01:19:36 PM 39.3833 -77.4167 142° Southeast 176 203 5,000 -150 Level Potomac TRACON
Sat 01:20:36 PM 39.3500 -77.3833 142° Southeast 174 200 4,700 -600 Descending Potomac TRACON
Sat 01:21:36 PM 39.3000 -77.3667 166° South 182 209 3,800 -300 Descending Potomac TRACON
Sat 01:22:36 PM 39.2667 -77.4000 218° Southwest 158 182 4,100 100 Climbing Potomac TRACON
Sat 01:23:36 PM 39.2333 -77.3667 142° Southeast 163 188 4,000 -52 Descending Potomac TRACON
Sat 01:24:31 PM 39.2000 -77.3667 180° South 146 168 4,000  Level Potomac TRACON
Sat 01:25:31 PM 39.1500 -77.3667 180° South 156 180 4,000  Level Potomac TRACON
Sat 01:26:31 PM 39.1167 -77.3667 180° South 151 174 4,000  Level Potomac TRACON
Sat 01:27:31 PM 39.0667 -77.3667 180° South 153 176 4,000  Level Potomac TRACON
Sat 01:28:37 PM 39.0167 -77.3667 180° South 151 174 4,000  Level Potomac TRACON
Sat 01:29:31 PM 38.9833 -77.3833 201° Southwest 152 175 4,000 -105 Level Potomac TRACON
Sat 01:30:31 PM 38.9500 -77.3667 159° South 151 174 3,800 -400 Descending Potomac TRACON
Sat 01:31:31 PM 38.9000 -77.3667 180° South 163 188 3,200 -400 Descending Potomac TRACON
Sat 01:32:31 PM 38.8500 -77.3500 165° South 153 176 3,000 -397 Descending Potomac TRACON
Sat 01:33:32 PM 38.8167 -77.3500 180° South 159 183 2,400 -496 Descending Potomac TRACON
Sat 01:34:32 PM 38.7667 -77.3500 180° South 164 189 2,000 -190 Descending Potomac TRACON
Sat 01:35:38 PM 38.7333 -77.3500 180° South 129 148 2,000  Level Potomac TRACON
Sat 01:36:32 PM 38.7167 -77.3833 237° Southwest 108 124 2,000 -211 Level Potomac TRACON
Sat 01:37:32 PM 38.7167 -77.4167 270° West 97 112 1,600 -400 Descending Potomac TRACON
Sat 01:38:32 PM 38.7000 -77.4500 237° Southwest 95 109 1,200 -300 Descending Potomac TRACON
Sat 01:39:32 PM 38.6833 -77.4833 237° Southwest 90 104 1,000 -200 Descending Potomac TRACON
Sat 01:42:00 PM 38.7210 -77.5151 339° North  Level Estimated
Sat 01:49:00 PM 38.7210 -77.5151 191° South  Level Estimated
Sat 01:50:00 PM 38.7210 -77.5151 191° South  Level Estimated
Sat 01:51:00 PM 38.7210 -77.5151 191° South  Level Estimated
Sat 01:52:00 PM 38.7210 -77.5151 191° South  Level Estimated

Login

Don't have an account? Register now (free) for customized features, flight alerts, and more!